createdAt,value
2023-01-27T00:00:01.886Z,10.99
2023-01-27T00:15:01.633Z,10.69
2023-01-27T00:30:02.300Z,10.74
2023-01-27T00:45:02.006Z,10.72
2023-01-27T01:00:01.646Z,10.69
2023-01-27T01:15:02.292Z,10.35
2023-01-27T01:30:01.927Z,10.26
2023-01-27T01:45:01.591Z,10.12
2023-01-27T02:00:02.212Z,10.28
2023-01-27T02:15:01.844Z,10.16
2023-01-27T02:30:01.554Z,10.3
2023-01-27T02:45:02.262Z,10.25
2023-01-27T03:00:01.903Z,10.1
2023-01-27T03:15:01.736Z,9.88
2023-01-27T03:30:01.645Z,10.03
2023-01-27T03:45:02.301Z,9.9
2023-01-27T04:00:02.029Z,9.82
2023-01-27T04:15:01.738Z,9.76
2023-01-27T04:30:02.435Z,9.88
2023-01-27T04:45:02.100Z,9.84
2023-01-27T05:00:01.931Z,10.14
2023-01-27T05:15:01.604Z,10.02
2023-01-27T05:30:02.320Z,9.93
2023-01-27T05:45:01.981Z,10.11
2023-01-27T06:00:01.638Z,10.03
2023-01-27T06:15:02.306Z,10.11
2023-01-27T06:30:02.042Z,10.12
2023-01-27T06:45:01.919Z,10.09
2023-01-27T07:00:01.550Z,10.66
2023-01-27T07:15:02.188Z,10.29
2023-01-27T07:30:01.842Z,10.26
2023-01-27T07:45:01.489Z,10.13
2023-01-27T08:00:02.159Z,10.06
2023-01-27T08:15:01.836Z,10.46
2023-01-27T08:30:01.524Z,10.31
2023-01-27T08:45:02.173Z,10.18
2023-01-27T09:00:01.820Z,10.41
2023-01-27T09:15:01.460Z,10.77
2023-01-27T09:30:02.115Z,11.39
2023-01-27T09:45:01.784Z,11.92
2023-01-27T10:00:01.407Z,12.18
2023-01-27T10:15:02.083Z,12.69
2023-01-27T10:30:01.762Z,13.01
2023-01-27T10:45:01.396Z,12.41
2023-01-27T11:00:41.558Z,12.85
2023-01-27T11:15:01.522Z,12.87
2023-01-27T11:30:02.436Z,12.98
2023-01-27T11:45:02.128Z,12.89
2023-01-27T12:00:01.790Z,12.53
2023-01-27T12:15:02.453Z,12.23
2023-01-27T12:30:02.163Z,12.17
2023-01-27T12:45:01.823Z,12.13
2023-01-27T13:00:01.563Z,12.65
2023-01-27T13:15:02.347Z,12.08
2023-01-27T13:30:02.114Z,11.78
2023-01-27T13:45:01.771Z,11.89
2023-01-27T14:00:01.394Z,12.07
2023-01-27T14:15:02.052Z,13.01
2023-01-27T14:30:01.699Z,12.62
2023-01-27T14:45:03.807Z,12.27
2023-01-27T15:00:01.860Z,12.15
2023-01-27T15:15:01.517Z,11.76
2023-01-27T15:30:02.340Z,11.58
2023-01-27T15:45:02.042Z,11.51
2023-01-27T16:00:01.691Z,11.27
2023-01-27T16:15:01.335Z,11.23
2023-01-27T16:30:01.985Z,11.13
2023-01-27T16:45:01.616Z,10.95
2023-01-27T17:00:02.274Z,10.96
2023-01-27T17:15:01.955Z,10.98
2023-01-27T17:30:01.691Z,10.87
2023-01-27T17:45:01.340Z,11.02
2023-01-27T18:00:02.003Z,10.85
2023-01-27T18:15:01.644Z,10.19
2023-01-27T18:30:01.368Z,10.28
2023-01-27T18:45:02.034Z,10.26
2023-01-27T19:00:01.743Z,10.33
2023-01-27T19:15:01.559Z,10.69
2023-01-27T19:30:02.450Z,10.29
2023-01-27T19:45:02.198Z,10.33
2023-01-27T20:00:01.903Z,10.27
2023-01-27T20:15:01.580Z,10.27
2023-01-27T20:30:02.221Z,10.24
2023-01-27T20:45:01.885Z,10.12
2023-01-27T21:00:01.548Z,9.75
2023-01-27T21:15:02.205Z,9.86
2023-01-27T21:30:01.871Z,9.84
2023-01-27T21:45:01.549Z,9.96
2023-01-27T22:00:02.214Z,9.97
2023-01-27T22:15:01.863Z,10.07
2023-01-27T22:30:01.563Z,10.5
2023-01-27T22:45:02.245Z,10.38
2023-01-27T23:00:01.903Z,10.54
2023-01-27T23:15:01.563Z,10.54
2023-01-27T23:30:02.200Z,10.03
2023-01-27T23:45:01.870Z,10.16
